createdAt,value
2016-09-10T00:00:37.297Z,15.94
2016-09-10T00:01:37.266Z,16.04
2016-09-10T00:02:37.260Z,15.96
2016-09-10T00:03:37.256Z,16
2016-09-10T00:04:37.259Z,16
2016-09-10T00:05:37.249Z,16.02
2016-09-10T00:06:37.252Z,16.05
2016-09-10T00:07:38.089Z,16.01
2016-09-10T00:08:37.288Z,15.96
2016-09-10T00:09:37.538Z,15.93
2016-09-10T00:10:37.451Z,16
2016-09-10T00:11:37.249Z,16.02
2016-09-10T00:12:37.596Z,16.02
2016-09-10T00:13:37.793Z,16
2016-09-10T00:14:37.271Z,16.04
2016-09-10T00:15:37.222Z,16.07
2016-09-10T00:16:37.623Z,16.02
2016-09-10T00:17:37.274Z,15.97
2016-09-10T00:18:38.786Z,15.94
2016-09-10T00:19:39.365Z,15.96
2016-09-10T00:20:37.758Z,16
2016-09-10T00:21:37.214Z,16
2016-09-10T00:22:37.507Z,16.05
2016-09-10T00:23:37.224Z,16
2016-09-10T00:24:37.191Z,16.02
2016-09-10T00:25:37.215Z,16.07
2016-09-10T00:26:37.186Z,16.11
2016-09-10T00:27:37.492Z,15.96
2016-09-10T00:28:37.179Z,15.94
2016-09-10T00:29:37.177Z,15.96
2016-09-10T00:30:37.186Z,16.04
2016-09-10T00:31:37.191Z,16
2016-09-10T00:32:37.173Z,16
2016-09-10T00:33:37.164Z,15.96
2016-09-10T00:34:37.553Z,15.96
2016-09-10T00:35:37.166Z,16.01
2016-09-10T00:36:37.163Z,16.02
2016-09-10T00:37:37.160Z,16
2016-09-10T00:38:37.152Z,16
2016-09-10T00:39:37.181Z,16
2016-09-10T00:40:37.151Z,15.92
2016-09-10T00:41:37.140Z,15.92
2016-09-10T00:42:37.158Z,15.97
2016-09-10T00:43:37.142Z,15.92
2016-09-10T00:44:37.149Z,15.9
2016-09-10T00:45:37.443Z,15.92
2016-09-10T00:46:37.149Z,15.86
2016-09-10T00:47:37.126Z,15.89
2016-09-10T00:48:37.267Z,15.89
2016-09-10T00:49:37.147Z,15.84
2016-09-10T00:50:37.119Z,15.9
2016-09-10T00:51:37.414Z,15.84
2016-09-10T00:52:37.119Z,15.87
2016-09-10T00:53:37.108Z,15.84
2016-09-10T00:54:37.415Z,15.9
2016-09-10T00:55:37.099Z,15.76
2016-09-10T00:56:37.114Z,15.78
2016-09-10T00:57:37.090Z,15.83
2016-09-10T00:58:37.087Z,15.76
2016-09-10T01:01:37.223Z,15.75
2016-09-10T01:02:37.123Z,15.76
2016-09-10T01:03:38.207Z,15.76
2016-09-10T01:04:37.076Z,15.82
2016-09-10T01:05:37.072Z,15.78
2016-09-10T01:06:37.050Z,15.76
2016-09-10T01:07:37.200Z,15.75
2016-09-10T01:08:38.757Z,15.84
2016-09-10T01:09:38.105Z,15.78
2016-09-10T01:10:37.889Z,15.86
2016-09-10T01:11:37.712Z,15.87
2016-09-10T01:12:37.297Z,15.84
2016-09-10T01:13:37.190Z,15.86
2016-09-10T01:14:37.030Z,15.92
2016-09-10T01:15:37.336Z,15.92
2016-09-10T01:16:37.111Z,15.82
2016-09-10T01:17:37.031Z,15.89
2016-09-10T01:18:37.021Z,15.9
2016-09-10T01:19:37.126Z,15.86
2016-09-10T01:20:37.033Z,15.94
2016-09-10T01:21:37.071Z,15.96
2016-09-10T01:22:37.053Z,15.94
2016-09-10T01:23:37.028Z,15.94
2016-09-10T01:24:36.995Z,15.96
2016-09-10T01:25:51.914Z,15.96
2016-09-10T01:26:38.355Z,16.07
2016-09-10T01:27:37.312Z,15.96
2016-09-10T01:28:37.298Z,15.97
2016-09-10T01:29:36.996Z,16.01
2016-09-10T01:30:38.074Z,15.96
2016-09-10T01:31:37.279Z,15.96
2016-09-10T01:32:36.983Z,16.01
2016-09-10T01:33:37.318Z,16.02
2016-09-10T01:34:38.146Z,15.96
2016-09-10T01:35:38.138Z,15.96
2016-09-10T01:36:37.964Z,15.97
2016-09-10T01:37:38.269Z,15.93
2016-09-10T01:38:51.862Z,16.08
2016-09-10T01:39:37.125Z,16.08
2016-09-10T01:40:37.246Z,15.93
2016-09-10T01:41:37.252Z,15.97
2016-09-10T01:42:36.987Z,16.01
2016-09-10T01:43:37.248Z,15.96
2016-09-10T01:44:36.938Z,16
2016-09-10T01:45:36.967Z,15.92
2016-09-10T01:46:36.933Z,15.9
2016-09-10T01:47:37.531Z,15.92
2016-09-10T01:48:37.388Z,15.93
2016-09-10T01:49:36.908Z,15.87
2016-09-10T01:50:36.908Z,15.97
2016-09-10T01:51:36.965Z,15.96
2016-09-10T01:52:37.458Z,15.97
2016-09-10T01:53:36.900Z,16.02
2016-09-10T01:54:36.978Z,15.96
2016-09-10T01:55:36.925Z,15.97
2016-09-10T01:56:37.190Z,16
2016-09-10T01:57:36.895Z,15.94
2016-09-10T01:58:37.201Z,15.9
2016-09-10T01:59:36.880Z,15.9
2016-09-10T02:00:37.175Z,15.8
2016-09-10T02:01:36.902Z,15.83
2016-09-10T02:02:36.873Z,15.86
2016-09-10T02:03:36.868Z,15.8
2016-09-10T02:04:36.877Z,15.87
2016-09-10T02:05:36.852Z,15.82
2016-09-10T02:06:37.168Z,15.92
2016-09-10T02:07:36.851Z,15.92
2016-09-10T02:08:36.863Z,15.89
2016-09-10T02:09:37.326Z,16.01
2016-09-10T02:10:36.843Z,15.87
2016-09-10T02:11:36.844Z,15.84
2016-09-10T02:12:36.873Z,15.9
2016-09-10T02:13:36.845Z,15.82
2016-09-10T02:14:36.834Z,15.76
2016-09-10T02:15:37.178Z,15.8
2016-09-10T02:16:37.130Z,15.78
2016-09-10T02:17:37.708Z,15.78
2016-09-10T02:18:39.082Z,15.76
2016-09-10T02:19:37.185Z,15.74
2016-09-10T02:20:36.818Z,15.75
2016-09-10T02:21:38.337Z,15.76
2016-09-10T02:22:36.820Z,15.71
2016-09-10T02:23:37.135Z,15.75
2016-09-10T02:24:36.804Z,15.71
2016-09-10T02:25:36.802Z,15.72
2016-09-10T02:26:36.787Z,15.74
2016-09-10T02:27:37.101Z,15.65
2016-09-10T02:28:37.173Z,15.68
2016-09-10T02:29:37.325Z,15.69
2016-09-10T02:30:37.098Z,15.65
2016-09-10T02:31:37.090Z,15.6
2016-09-10T02:32:36.767Z,15.64
2016-09-10T02:33:36.806Z,15.62
2016-09-10T02:34:36.774Z,15.62
2016-09-10T02:35:36.802Z,15.64
2016-09-10T02:36:37.062Z,15.6
2016-09-10T02:37:36.757Z,15.6
2016-09-10T02:38:36.750Z,15.5
2016-09-10T02:39:36.795Z,15.53
2016-09-10T02:40:37.114Z,15.51
2016-09-10T02:41:36.748Z,15.59
2016-09-10T02:42:36.744Z,15.6
2016-09-10T02:43:36.756Z,15.57
2016-09-10T02:44:37.809Z,15.53
2016-09-10T02:47:51.636Z,15.5
2016-09-10T02:48:36.713Z,15.6
2016-09-10T02:49:36.732Z,15.54
2016-09-10T02:50:37.009Z,15.54
2016-09-10T02:51:36.712Z,15.53
2016-09-10T02:52:36.697Z,15.56
2016-09-10T02:53:37.837Z,15.53
2016-09-10T02:54:36.944Z,15.5
2016-09-10T02:55:36.991Z,15.5
2016-09-10T02:56:36.702Z,15.53
2016-09-10T02:57:36.692Z,15.5
2016-09-10T02:58:36.878Z,15.56
2016-09-10T02:59:36.678Z,15.5
2016-09-10T03:00:36.828Z,15.51
2016-09-10T03:01:36.707Z,15.53
2016-09-10T03:02:36.667Z,15.51
2016-09-10T03:03:36.666Z,15.5
2016-09-10T03:04:36.658Z,15.5
2016-09-10T03:05:36.679Z,15.51
2016-09-10T03:06:36.960Z,15.53
2016-09-10T03:07:36.649Z,15.51
2016-09-10T03:08:36.741Z,15.51
2016-09-10T03:09:36.643Z,15.46
2016-09-10T03:10:36.630Z,15.44
2016-09-10T03:11:37.209Z,15.54
2016-09-10T03:12:36.627Z,15.49
2016-09-10T03:13:36.632Z,15.41
2016-09-10T03:14:36.640Z,15.56
2016-09-10T03:15:37.038Z,15.51
2016-09-10T03:16:36.619Z,15.44
2016-09-10T03:17:36.626Z,15.41
2016-09-10T03:18:36.634Z,15.5
2016-09-10T03:19:36.612Z,15.5
2016-09-10T03:20:36.626Z,15.43
2016-09-10T03:21:36.948Z,15.44
2016-09-10T03:22:36.945Z,15.41
2016-09-10T03:23:36.652Z,15.46
2016-09-10T03:24:36.592Z,15.39
2016-09-10T03:25:36.602Z,15.46
2016-09-10T03:26:36.884Z,15.41
2016-09-10T03:27:36.580Z,15.36
2016-09-10T03:28:36.573Z,15.46
2016-09-10T03:29:36.581Z,15.47
2016-09-10T03:30:36.567Z,15.44
2016-09-10T03:31:36.568Z,15.38
2016-09-10T03:32:37.181Z,15.5
2016-09-10T03:33:36.697Z,15.46
2016-09-10T03:34:36.643Z,15.47
2016-09-10T03:35:36.570Z,15.47
2016-09-10T03:36:37.808Z,15.47
2016-09-10T03:37:38.031Z,15.44
2016-09-10T03:38:36.537Z,15.49
2016-09-10T03:39:37.965Z,15.39
2016-09-10T03:40:36.697Z,15.39
2016-09-10T03:41:37.185Z,15.41
2016-09-10T03:42:36.577Z,15.47
2016-09-10T03:43:36.535Z,15.47
2016-09-10T03:44:36.555Z,15.5
2016-09-10T03:45:37.627Z,15.44
2016-09-10T03:46:39.519Z,15.39
2016-09-10T03:47:36.705Z,15.41
2016-09-10T03:48:36.552Z,15.41
2016-09-10T03:49:36.500Z,15.46
2016-09-10T03:50:36.794Z,15.43
2016-09-10T03:51:36.490Z,15.44
2016-09-10T03:52:36.514Z,15.34
2016-09-10T03:53:36.828Z,15.38
2016-09-10T03:54:36.498Z,15.44
2016-09-10T03:55:36.486Z,15.44
2016-09-10T03:56:36.482Z,15.39
2016-09-10T03:57:36.510Z,15.43
2016-09-10T03:58:36.876Z,15.43
2016-09-10T03:59:36.488Z,15.39
2016-09-10T04:00:36.481Z,15.36
2016-09-10T04:01:36.550Z,15.36
2016-09-10T04:02:37.375Z,15.38
2016-09-10T04:03:36.453Z,15.46
2016-09-10T04:04:37.210Z,15.32
2016-09-10T04:05:36.549Z,15.36
2016-09-10T04:06:36.476Z,15.41
2016-09-10T04:07:36.440Z,15.34
2016-09-10T04:08:36.433Z,15.35
2016-09-10T04:09:36.428Z,15.32
2016-09-10T04:10:36.792Z,15.36
2016-09-10T04:11:37.670Z,15.35
2016-09-10T04:12:37.021Z,15.32
2016-09-10T04:13:37.632Z,15.34
2016-09-10T04:14:36.419Z,15.32
2016-09-10T04:15:37.159Z,15.28
2016-09-10T04:16:36.423Z,15.36
2016-09-10T04:17:36.998Z,15.36
2016-09-10T04:18:36.413Z,15.29
2016-09-10T04:19:36.398Z,15.34
2016-09-10T04:20:36.698Z,15.35
2016-09-10T04:21:36.383Z,15.28
2016-09-10T04:22:36.386Z,15.25
2016-09-10T04:23:36.395Z,15.27
2016-09-10T04:24:36.367Z,15.25
2016-09-10T04:25:36.530Z,15.27
2016-09-10T04:26:36.675Z,15.23
2016-09-10T04:27:36.666Z,15.29
2016-09-10T04:28:36.668Z,15.25
2016-09-10T04:29:36.352Z,15.27
2016-09-10T04:30:36.384Z,15.29
2016-09-10T04:31:36.986Z,15.39
2016-09-10T04:32:36.576Z,15.35
2016-09-10T04:33:36.466Z,15.31
2016-09-10T04:34:36.346Z,15.38
2016-09-10T04:35:36.352Z,15.43
2016-09-10T04:36:36.337Z,15.46
2016-09-10T04:37:36.628Z,15.44
2016-09-10T04:38:36.683Z,15.38
2016-09-10T04:39:36.778Z,15.47
2016-09-10T04:40:36.410Z,15.5
2016-09-10T04:41:36.355Z,15.51
2016-09-10T04:42:36.638Z,15.56
2016-09-10T04:43:36.625Z,15.51
2016-09-10T04:44:36.297Z,15.6
2016-09-10T04:45:36.400Z,15.69
2016-09-10T04:46:36.324Z,15.67
2016-09-10T04:47:36.410Z,15.75
2016-09-10T04:48:36.611Z,15.72
2016-09-10T04:49:36.324Z,15.84
2016-09-10T04:50:36.311Z,15.87
2016-09-10T04:51:36.268Z,15.94
2016-09-10T04:52:36.272Z,15.97
2016-09-10T04:53:36.283Z,16.08
2016-09-10T04:54:37.784Z,15.94
2016-09-10T04:55:36.331Z,16.11
2016-09-10T04:56:36.858Z,16.12
2016-09-10T04:57:36.915Z,16.12
2016-09-10T04:58:36.262Z,16.17
2016-09-10T04:59:36.726Z,16.2
2016-09-10T05:00:36.254Z,16.25
2016-09-10T05:01:36.545Z,16.34
2016-09-10T05:02:36.248Z,16.33
2016-09-10T05:04:37.999Z,16.43
2016-09-10T05:05:38.433Z,16.41
2016-09-10T05:06:36.525Z,16.52
2016-09-10T05:07:36.941Z,16.57
2016-09-10T05:08:36.276Z,16.53
2016-09-10T05:09:36.231Z,16.68
2016-09-10T05:10:36.615Z,16.73
2016-09-10T05:11:36.534Z,16.73
2016-09-10T05:12:36.515Z,16.78
2016-09-10T05:13:36.197Z,16.81
2016-09-10T05:14:36.222Z,16.88
2016-09-10T05:15:36.190Z,16.79
2016-09-10T05:16:36.205Z,16.89
2016-09-10T05:17:36.221Z,17.01
2016-09-10T05:18:36.219Z,17.01
2016-09-10T05:19:36.231Z,17.08
2016-09-10T05:20:37.329Z,17.16
2016-09-10T05:21:36.826Z,17.14
2016-09-10T05:22:36.191Z,17.26
2016-09-10T05:23:36.624Z,17.37
2016-09-10T05:24:36.175Z,17.38
2016-09-10T05:25:36.222Z,17.4
2016-09-10T05:26:36.478Z,17.38
2016-09-10T05:27:36.166Z,17.54
2016-09-10T05:28:36.168Z,17.51
2016-09-10T05:29:36.312Z,17.54
2016-09-10T05:30:36.233Z,17.56
2016-09-10T05:31:37.174Z,17.58
2016-09-10T05:32:36.907Z,17.56
2016-09-10T05:33:36.178Z,17.63
2016-09-10T05:34:36.353Z,17.68
2016-09-10T05:35:36.141Z,17.75
2016-09-10T05:36:36.158Z,17.79
2016-09-10T05:37:36.481Z,17.82
2016-09-10T05:38:36.483Z,17.84
2016-09-10T05:39:36.134Z,17.89
2016-09-10T05:40:36.518Z,17.86
2016-09-10T05:41:36.498Z,17.92
2016-09-10T05:42:36.130Z,17.95
2016-09-10T05:43:36.195Z,18.02
2016-09-10T05:44:36.204Z,18.12
2016-09-10T05:45:36.159Z,18.15
2016-09-10T05:46:36.140Z,18.23
2016-09-10T05:47:36.115Z,18.23
2016-09-10T05:48:36.111Z,18.2
2016-09-10T05:49:36.158Z,18.32
2016-09-10T05:50:36.412Z,18.27
2016-09-10T05:51:36.419Z,18.44
2016-09-10T05:52:36.107Z,18.37
2016-09-10T05:53:36.117Z,18.51
2016-09-10T05:54:36.121Z,18.52
2016-09-10T05:55:36.261Z,18.58
2016-09-10T05:56:36.146Z,18.67
2016-09-10T05:57:36.404Z,18.82
2016-09-10T05:58:36.093Z,18.91
2016-09-10T05:59:36.104Z,19.02
2016-09-10T06:00:36.093Z,19.1
2016-09-10T06:01:36.127Z,19.14
2016-09-10T06:02:36.133Z,19.37
2016-09-10T06:03:36.099Z,19.36
2016-09-10T06:04:36.135Z,19.41
2016-09-10T06:05:36.126Z,19.5
2016-09-10T06:06:36.110Z,19.51
2016-09-10T06:07:36.398Z,19.55
2016-09-10T06:08:36.089Z,19.58
2016-09-10T06:09:36.405Z,19.61
2016-09-10T06:10:36.386Z,19.63
2016-09-10T06:11:36.385Z,19.73
2016-09-10T06:12:36.769Z,19.73
2016-09-10T06:13:39.140Z,19.77
2016-09-10T06:14:36.408Z,19.69
2016-09-10T06:15:36.912Z,19.77
2016-09-10T06:16:36.162Z,19.84
2016-09-10T06:17:36.086Z,19.87
2016-09-10T06:18:36.086Z,19.87
2016-09-10T06:19:36.377Z,20.02
2016-09-10T06:20:36.069Z,20.02
2016-09-10T06:21:38.703Z,20.13
2016-09-10T06:22:37.402Z,20.06
2016-09-10T06:23:38.270Z,20.23
2016-09-10T06:24:36.078Z,20.24
2016-09-10T06:25:36.078Z,20.33
2016-09-10T06:26:36.556Z,20.33
2016-09-10T06:27:36.075Z,20.39
2016-09-10T06:28:36.084Z,20.47
2016-09-10T06:29:36.413Z,20.54
2016-09-10T06:30:36.135Z,20.57
2016-09-10T06:31:36.079Z,20.66
2016-09-10T06:32:36.074Z,20.72
2016-09-10T06:33:36.077Z,20.82
2016-09-10T06:34:36.081Z,20.89
2016-09-10T06:35:36.069Z,20.99
2016-09-10T06:36:36.070Z,21.09
2016-09-10T06:37:36.071Z,21.13
2016-09-10T06:38:36.602Z,21.21
2016-09-10T06:39:36.092Z,21.34
2016-09-10T06:40:51.782Z,21.32
2016-09-10T06:41:36.104Z,21.43
2016-09-10T06:42:36.086Z,21.56
2016-09-10T06:43:36.380Z,21.58
2016-09-10T06:44:36.390Z,21.69
2016-09-10T06:45:36.106Z,21.91
2016-09-10T06:46:36.084Z,21.98
2016-09-10T06:47:36.699Z,22.07
2016-09-10T06:48:51.720Z,22.22
2016-09-10T06:49:36.700Z,22.31
2016-09-10T06:50:36.709Z,22.35
2016-09-10T06:51:36.101Z,22.51
2016-09-10T06:52:36.089Z,22.51
2016-09-10T06:53:36.237Z,22.76
2016-09-10T06:54:36.108Z,22.91
2016-09-10T06:55:36.110Z,23.02
2016-09-10T06:56:36.103Z,23.15
2016-09-10T06:57:36.432Z,23.4
2016-09-10T06:58:36.164Z,23.63
2016-09-10T06:59:36.268Z,23.78
2016-09-10T07:00:36.751Z,23.97
2016-09-10T07:01:36.114Z,24.1
2016-09-10T07:02:36.489Z,24.28
2016-09-10T07:03:36.144Z,24.47
2016-09-10T07:04:36.447Z,24.67
2016-09-10T07:05:36.196Z,24.78
2016-09-10T07:06:36.145Z,25.06
2016-09-10T07:07:36.495Z,25.18
2016-09-10T07:08:36.562Z,25.33
2016-09-10T07:09:36.171Z,25.32
2016-09-10T07:10:36.484Z,25.42
2016-09-10T07:11:36.173Z,25.52
2016-09-10T07:12:36.198Z,25.54
2016-09-10T07:13:36.188Z,25.57
2016-09-10T07:14:36.194Z,25.76
2016-09-10T07:15:36.201Z,25.87
2016-09-10T07:16:36.279Z,25.9
2016-09-10T07:17:36.205Z,25.9
2016-09-10T07:18:36.671Z,26.06
2016-09-10T07:19:36.259Z,26.18
2016-09-10T07:20:36.300Z,26.32
2016-09-10T07:21:36.520Z,26.33
2016-09-10T07:22:36.559Z,26.35
2016-09-10T07:23:36.257Z,26.4
2016-09-10T07:24:36.593Z,26.51
2016-09-10T07:25:36.599Z,26.55
2016-09-10T07:26:36.310Z,26.58
2016-09-10T07:27:36.321Z,26.62
2016-09-10T07:28:36.950Z,26.55
2016-09-10T07:29:36.692Z,26.75
2016-09-10T07:31:38.551Z,26.89
2016-09-10T07:32:36.317Z,26.95
2016-09-10T07:33:37.047Z,27.13
2016-09-10T07:34:36.591Z,27.17
2016-09-10T07:35:36.490Z,27.28
2016-09-10T07:36:36.653Z,27.43
2016-09-10T07:37:36.354Z,27.62
2016-09-10T07:38:36.666Z,27.65
2016-09-10T07:40:37.524Z,27.81
2016-09-10T07:41:38.644Z,27.72
2016-09-10T07:42:36.743Z,27.79
2016-09-10T07:43:36.408Z,27.74
2016-09-10T07:44:36.746Z,27.77
2016-09-10T07:45:49.459Z,27.78
2016-09-10T07:46:36.490Z,27.92
2016-09-10T07:47:36.432Z,27.92
2016-09-10T07:48:36.467Z,28.02
2016-09-10T07:49:36.469Z,28.04
2016-09-10T07:50:36.523Z,28.02
2016-09-10T07:51:36.481Z,27.97
2016-09-10T07:52:36.482Z,28.09
2016-09-10T07:53:36.495Z,27.99
2016-09-10T07:54:36.511Z,27.84
2016-09-10T07:55:36.511Z,28
2016-09-10T07:56:37.067Z,28.06
2016-09-10T07:57:37.079Z,28.04
2016-09-10T07:58:43.860Z,28.03
2016-09-10T07:59:38.065Z,28.06
2016-09-10T08:01:36.773Z,28.09
2016-09-10T08:03:36.886Z,27.93
2016-09-10T08:04:36.589Z,27.79
2016-09-10T08:05:37.188Z,27.78
2016-09-10T08:06:36.689Z,27.5
2016-09-10T08:07:38.008Z,27.28
2016-09-10T08:08:36.926Z,27.07
2016-09-10T08:09:39.619Z,27
2016-09-10T08:10:37.092Z,27.03
2016-09-10T08:11:36.708Z,27
2016-09-10T08:12:36.729Z,26.87
2016-09-10T08:13:36.674Z,26.88
2016-09-10T08:14:36.702Z,26.81
2016-09-10T08:15:37.161Z,26.72
2016-09-10T08:16:36.698Z,26.72
2016-09-10T08:17:37.040Z,26.66
2016-09-10T08:18:36.713Z,26.62
2016-09-10T08:19:37.048Z,26.57
2016-09-10T08:20:36.731Z,26.54
2016-09-10T08:21:37.042Z,26.62
2016-09-10T08:22:36.742Z,26.62
2016-09-10T08:23:36.758Z,26.55
2016-09-10T08:24:36.755Z,26.54
2016-09-10T08:25:36.761Z,26.54
2016-09-10T08:26:36.797Z,26.52
2016-09-10T08:27:37.080Z,26.25
2016-09-10T08:28:37.104Z,26.26
2016-09-10T08:29:37.158Z,26.23
2016-09-10T08:30:36.801Z,26.02
2016-09-10T08:31:37.242Z,25.99
2016-09-10T08:32:36.813Z,25.94
2016-09-10T08:33:37.041Z,25.77
2016-09-10T08:34:36.824Z,25.69
2016-09-10T08:35:37.157Z,25.62
2016-09-10T08:36:36.924Z,25.54
2016-09-10T08:37:36.843Z,25.64
2016-09-10T08:38:36.876Z,25.61
2016-09-10T08:39:36.950Z,25.61
2016-09-10T08:40:36.909Z,25.61
2016-09-10T08:41:36.901Z,25.62
2016-09-10T08:42:36.882Z,25.5
2016-09-10T08:43:36.875Z,25.38
2016-09-10T08:44:37.501Z,25.36
2016-09-10T08:45:36.937Z,25.39
2016-09-10T08:46:36.888Z,25.5
2016-09-10T08:47:37.200Z,25.33
2016-09-10T08:49:38.613Z,25.32
2016-09-10T08:51:50.758Z,25.24
2016-09-10T08:52:37.558Z,25.18
2016-09-10T08:53:36.925Z,25.2
2016-09-10T08:54:37.642Z,25.14
2016-09-10T08:55:36.938Z,25.03
2016-09-10T08:56:37.297Z,24.96
2016-09-10T08:57:50.447Z,24.95
2016-09-10T08:58:37.823Z,24.84
2016-09-10T08:59:39.457Z,24.84
2016-09-10T09:00:37.541Z,24.83
2016-09-10T09:01:37.515Z,24.85
2016-09-10T09:02:37.287Z,24.84
2016-09-10T09:03:36.972Z,24.81
2016-09-10T09:04:37.345Z,24.84
2016-09-10T09:05:36.984Z,24.81
2016-09-10T09:06:36.985Z,24.9
2016-09-10T09:07:37.316Z,24.73
2016-09-10T09:08:36.998Z,24.65
2016-09-10T09:09:37.303Z,24.64
2016-09-10T09:10:37.311Z,24.73
2016-09-10T09:11:37.023Z,24.87
2016-09-10T09:12:37.029Z,24.84
2016-09-10T09:13:37.208Z,24.83
2016-09-10T09:14:37.039Z,24.87
2016-09-10T09:15:37.030Z,24.93
2016-09-10T09:16:37.330Z,24.95
2016-09-10T09:17:37.250Z,24.81
2016-09-10T09:18:37.089Z,24.84
2016-09-10T09:19:37.092Z,24.77
2016-09-10T09:20:37.363Z,24.68
2016-09-10T09:21:37.186Z,24.64
2016-09-10T09:22:37.395Z,24.64
2016-09-10T09:23:37.369Z,24.58
2016-09-10T09:24:37.380Z,24.61
2016-09-10T09:25:37.072Z,24.68
2016-09-10T09:26:37.067Z,24.62
2016-09-10T09:27:37.140Z,24.67
2016-09-10T09:28:37.161Z,24.69
2016-09-10T09:29:37.092Z,24.68
2016-09-10T09:30:37.398Z,24.85
2016-09-10T09:31:37.085Z,24.9
2016-09-10T09:32:37.598Z,24.93
2016-09-10T09:33:37.411Z,24.98
2016-09-10T09:34:37.411Z,25.09
2016-09-10T09:35:37.109Z,25.1
2016-09-10T09:36:37.414Z,25.18
2016-09-10T09:37:37.117Z,25.06
2016-09-10T09:38:37.428Z,25.09
2016-09-10T09:39:37.493Z,25.13
2016-09-10T09:40:37.191Z,25.14
2016-09-10T09:41:37.143Z,25.17
2016-09-10T09:42:37.266Z,25.13
2016-09-10T09:43:37.182Z,25.2
2016-09-10T09:44:37.150Z,25.2
2016-09-10T09:45:37.159Z,25.35
2016-09-10T09:46:37.159Z,25.36
2016-09-10T09:47:37.195Z,25.2
2016-09-10T09:48:37.252Z,25.18
2016-09-10T09:49:37.162Z,25.18
2016-09-10T09:50:37.159Z,25.15
2016-09-10T09:51:37.157Z,25.1
2016-09-10T09:52:37.232Z,25.21
2016-09-10T09:53:37.183Z,25.27
2016-09-10T09:54:37.197Z,25.23
2016-09-10T09:55:37.184Z,25.2
2016-09-10T09:56:37.186Z,25.15
2016-09-10T09:57:37.213Z,25.28
2016-09-10T09:58:37.201Z,25.36
2016-09-10T09:59:37.543Z,25.35
2016-09-10T10:00:37.298Z,25.3
2016-09-10T10:01:37.608Z,25.27
2016-09-10T10:02:37.224Z,25.35
2016-09-10T10:03:38.139Z,25.51
2016-09-10T10:04:37.241Z,25.45
2016-09-10T10:05:37.229Z,25.51
2016-09-10T10:07:38.947Z,25.58
2016-09-10T10:08:37.240Z,25.55
2016-09-10T10:09:38.684Z,25.65
2016-09-10T10:10:38.777Z,25.65
2016-09-10T10:11:37.909Z,25.61
2016-09-10T10:12:37.299Z,25.61
2016-09-10T10:13:37.249Z,25.55
2016-09-10T10:14:37.714Z,25.43
2016-09-10T10:15:38.125Z,25.47
2016-09-10T10:16:38.041Z,25.46
2016-09-10T10:17:39.872Z,25.39
2016-09-10T10:18:38.201Z,25.38
2016-09-10T10:19:38.527Z,25.32
2016-09-10T10:20:37.923Z,25.28
2016-09-10T10:21:37.296Z,25.38
2016-09-10T10:22:37.378Z,25.35
2016-09-10T10:23:38.003Z,25.35
2016-09-10T10:24:37.866Z,25.36
2016-09-10T10:25:37.640Z,25.4
2016-09-10T10:26:38.464Z,25.51
2016-09-10T10:27:37.317Z,25.54
2016-09-10T10:28:37.619Z,25.45
2016-09-10T10:29:37.324Z,25.52
2016-09-10T10:30:37.322Z,25.54
2016-09-10T10:31:37.328Z,25.54
2016-09-10T10:32:37.341Z,25.54
2016-09-10T10:33:37.335Z,25.42
2016-09-10T10:34:37.656Z,25.47
2016-09-10T10:35:37.345Z,25.33
2016-09-10T10:36:37.370Z,25.38
2016-09-10T10:37:37.352Z,25.32
2016-09-10T10:38:37.363Z,25.45
2016-09-10T10:39:37.373Z,25.4
2016-09-10T10:40:37.393Z,25.42
2016-09-10T10:41:37.372Z,25.52
2016-09-10T10:42:37.363Z,25.47
2016-09-10T10:43:37.391Z,25.42
2016-09-10T10:44:37.683Z,25.43
2016-09-10T10:45:37.418Z,25.42
2016-09-10T10:46:37.699Z,25.43
2016-09-10T10:47:37.389Z,25.43
2016-09-10T10:48:37.468Z,25.47
2016-09-10T10:49:37.733Z,25.5
2016-09-10T10:50:37.397Z,25.58
2016-09-10T10:51:37.404Z,25.57
2016-09-10T10:52:37.423Z,25.52
2016-09-10T10:53:37.720Z,25.6
2016-09-10T10:54:37.418Z,25.6
2016-09-10T10:55:37.505Z,25.6
2016-09-10T10:56:37.482Z,25.62
2016-09-10T10:57:37.428Z,25.73
2016-09-10T10:58:37.432Z,25.65
2016-09-10T10:59:37.431Z,25.61
2016-09-10T11:00:39.308Z,25.62
2016-09-10T11:01:37.785Z,25.62
2016-09-10T11:02:37.454Z,25.65
2016-09-10T11:03:37.465Z,25.62
2016-09-10T11:04:37.455Z,25.67
2016-09-10T11:05:37.473Z,25.62
2016-09-10T11:06:37.463Z,25.61
2016-09-10T11:07:37.767Z,25.64
2016-09-10T11:08:37.485Z,25.73
2016-09-10T11:09:37.500Z,25.73
2016-09-10T11:10:37.529Z,25.76
2016-09-10T11:11:37.475Z,25.77
2016-09-10T11:12:37.495Z,25.88
2016-09-10T11:13:37.597Z,25.85
2016-09-10T11:14:37.566Z,25.82
2016-09-10T11:15:37.809Z,25.95
2016-09-10T11:16:37.505Z,25.99
2016-09-10T11:17:37.799Z,25.88
2016-09-10T11:18:37.506Z,25.97
2016-09-10T11:19:37.507Z,25.91
2016-09-10T11:20:37.524Z,25.94
2016-09-10T11:21:37.523Z,26.01
2016-09-10T11:22:37.536Z,26.05
2016-09-10T11:23:37.830Z,25.91
2016-09-10T11:24:39.190Z,25.91
2016-09-10T11:25:39.156Z,25.98
2016-09-10T11:26:37.784Z,26.01
2016-09-10T11:27:39.633Z,26.05
2016-09-10T11:28:37.567Z,26.02
2016-09-10T11:29:37.940Z,26.06
2016-09-10T11:30:37.620Z,26.02
2016-09-10T11:31:37.867Z,26.15
2016-09-10T11:32:38.514Z,26.18
2016-09-10T11:33:39.384Z,26.17
2016-09-10T11:34:38.676Z,26.28
2016-09-10T11:35:40.326Z,26.29
2016-09-10T11:36:39.006Z,26.28
2016-09-10T11:37:37.598Z,26.35
2016-09-10T11:38:38.391Z,26.39
2016-09-10T11:39:37.582Z,26.37
2016-09-10T11:40:37.618Z,26.48
2016-09-10T11:41:38.752Z,26.45
2016-09-10T11:42:37.853Z,26.39
2016-09-10T11:43:37.611Z,26.47
2016-09-10T11:44:52.521Z,26.51
2016-09-10T11:45:37.980Z,26.45
2016-09-10T11:46:38.566Z,26.37
2016-09-10T11:47:38.549Z,26.4
2016-09-10T11:48:37.631Z,26.45
2016-09-10T11:49:37.639Z,26.37
2016-09-10T11:50:37.631Z,26.4
2016-09-10T11:51:37.646Z,26.44
2016-09-10T11:52:37.653Z,26.57
2016-09-10T11:53:37.761Z,26.54
2016-09-10T11:54:37.677Z,26.62
2016-09-10T11:55:37.968Z,26.63
2016-09-10T11:56:37.656Z,26.55
2016-09-10T11:57:37.986Z,26.65
2016-09-10T11:58:37.698Z,26.6
2016-09-10T11:59:37.672Z,26.58
2016-09-10T12:00:38.000Z,26.72
2016-09-10T12:01:37.849Z,26.66
2016-09-10T12:02:37.951Z,26.76
2016-09-10T12:03:37.689Z,26.66
2016-09-10T12:04:37.699Z,26.69
2016-09-10T12:05:38.005Z,26.69
2016-09-10T12:06:37.704Z,26.8
2016-09-10T12:07:37.716Z,26.81
2016-09-10T12:08:37.728Z,26.8
2016-09-10T12:09:37.718Z,26.76
2016-09-10T12:10:37.730Z,26.7
2016-09-10T12:11:37.728Z,26.82
2016-09-10T12:12:38.035Z,26.77
2016-09-10T12:13:37.801Z,26.8
2016-09-10T12:14:37.742Z,26.84
2016-09-10T12:15:37.760Z,26.77
2016-09-10T12:16:38.996Z,26.87
2016-09-10T12:17:38.070Z,26.87
2016-09-10T12:18:37.768Z,26.85
2016-09-10T12:19:37.903Z,26.92
2016-09-10T12:20:38.083Z,26.88
2016-09-10T12:21:37.779Z,26.92
2016-09-10T12:22:37.786Z,26.87
2016-09-10T12:23:38.101Z,26.91
2016-09-10T12:24:37.781Z,26.81
2016-09-10T12:25:37.801Z,26.89
2016-09-10T12:26:37.869Z,26.92
2016-09-10T12:27:38.162Z,26.92
2016-09-10T12:28:37.810Z,26.89
2016-09-10T12:29:38.154Z,26.91
2016-09-10T12:30:37.811Z,26.94
2016-09-10T12:31:38.131Z,26.99
2016-09-10T12:32:37.822Z,26.94
2016-09-10T12:33:37.875Z,26.91
2016-09-10T12:34:37.847Z,26.87
2016-09-10T12:35:37.885Z,26.85
2016-09-10T12:36:37.848Z,26.76
2016-09-10T12:37:37.916Z,26.89
2016-09-10T12:38:37.904Z,26.85
2016-09-10T12:39:37.860Z,26.87
2016-09-10T12:40:38.717Z,26.84
2016-09-10T12:41:37.881Z,26.85
2016-09-10T12:42:38.728Z,26.85
2016-09-10T12:43:39.194Z,26.82
2016-09-10T12:44:38.082Z,26.84
2016-09-10T12:45:37.890Z,26.73
2016-09-10T12:46:38.081Z,26.69
2016-09-10T12:47:38.438Z,26.67
2016-09-10T12:48:37.900Z,26.65
2016-09-10T12:49:37.935Z,26.69
2016-09-10T12:50:38.402Z,26.72
2016-09-10T12:51:39.606Z,26.67
2016-09-10T12:54:39.837Z,26.88
2016-09-10T12:55:37.928Z,26.77
2016-09-10T12:56:38.410Z,26.73
2016-09-10T12:57:37.983Z,26.82
2016-09-10T12:58:37.947Z,26.81
2016-09-10T12:59:38.392Z,26.84
2016-09-10T13:00:38.302Z,26.8
2016-09-10T13:01:37.949Z,26.82
2016-09-10T13:02:37.953Z,26.82
2016-09-10T13:03:37.966Z,26.91
2016-09-10T13:04:38.292Z,26.88
2016-09-10T13:05:38.107Z,26.97
2016-09-10T13:06:37.976Z,27
2016-09-10T13:07:38.277Z,27.03
2016-09-10T13:08:37.982Z,26.97
2016-09-10T13:09:38.280Z,27.03
2016-09-10T13:10:37.992Z,27.04